Time;durP1;ratioP1;P1;durP2;ratioP2;P2;SDS_P1;SDS_P2;PMS_P1;PMS_P2;Temp;Humidity;BMP_temperature;BMP_pressure;BME280_temperature;BME280_humidity;BME280_pressure;Samples;Min_cycle;Max_cycle;Signal;HPM_P1;HPM_P2
2021/03/16 00:02:05;;;;;;;22.98;6.53;;;6.80;99.90;;;;;;5085620;28;20208;-73
2021/03/16 00:04:31;;;;;;;18.05;4.13;;;6.70;99.90;;;;;;5087682;28;20246;-73
2021/03/16 00:06:58;;;;;;;17.42;2.65;;;6.80;99.90;;;;;;5089599;28;20200;-73
2021/03/16 00:09:25;;;;;;;19.73;4.90;;;6.80;99.90;;;;;;5084375;28;20200;-73
2021/03/16 00:11:52;;;;;;;18.13;3.25;;;6.80;99.90;;;;;;5088718;28;20215;-73
2021/03/16 00:14:18;;;;;;;8.05;2.90;;;6.80;99.90;;;;;;5099263;28;20206;-73
2021/03/16 00:16:45;;;;;;;13.38;3.38;;;6.80;99.90;;;;;;5090784;28;20204;-73
2021/03/16 00:19:11;;;;;;;15.80;3.08;;;6.80;99.90;;;;;;5089180;28;20208;-73
2021/03/16 00:21:38;;;;;;;9.93;2.00;;;6.80;99.90;;;;;;5089439;28;20189;-73
2021/03/16 00:24:05;;;;;;;18.98;4.05;;;6.80;99.90;;;;;;5092369;28;20220;-73
2021/03/16 00:26:32;;;;;;;15.93;3.13;;;6.80;99.90;;;;;;5088279;28;20208;-73
2021/03/16 00:28:59;;;;;;;18.50;3.65;;;6.80;99.90;;;;;;5094856;28;20205;-73
2021/03/16 00:31:25;;;;;;;12.65;2.97;;;6.80;99.90;;;;;;5089847;28;20230;-72
2021/03/16 00:33:53;;;;;;;19.45;2.97;;;6.90;99.90;;;;;;5093049;28;20258;-73
2021/03/16 00:36:20;;;;;;;13.70;2.45;;;6.90;99.90;;;;;;5087310;28;20200;-72
2021/03/16 00:38:47;;;;;;;11.63;2.47;;;6.90;99.90;;;;;;5090814;28;20211;-72
2021/03/16 00:41:13;;;;;;;8.85;2.15;;;6.90;99.90;;;;;;5090611;28;20662;-73
2021/03/16 00:43:40;;;;;;;15.98;2.88;;;7.00;99.90;;;;;;5088232;28;20246;-73
2021/03/16 00:46:12;;;;;;;15.50;2.95;;;7.00;99.90;;;;;;5088813;28;20232;-73
2021/03/16 00:48:38;;;;;;;10.88;2.95;;;7.00;99.90;;;;;;5087408;28;20205;-73
2021/03/16 00:51:05;;;;;;;11.15;3.75;;;7.00;99.90;;;;;;5088591;28;20200;-73
2021/03/16 00:53:32;;;;;;;13.55;3.40;;;7.00;99.90;;;;;;5092074;28;20230;-73
2021/03/16 00:55:58;;;;;;;16.50;4.28;;;7.10;99.90;;;;;;5088490;28;20235;-73
2021/03/16 00:58:25;;;;;;;22.13;3.65;;;7.10;99.90;;;;;;5088528;28;20200;-72
2021/03/16 01:00:53;;;;;;;13.32;2.38;;;7.10;99.90;;;;;;5087934;28;20201;-73
2021/03/16 01:03:20;;;;;;;10.18;2.92;;;7.10;99.90;;;;;;5087743;28;20236;-73
2021/03/16 01:05:47;;;;;;;24.00;2.78;;;7.10;99.90;;;;;;5096382;28;20239;-73
2021/03/16 01:08:14;;;;;;;19.05;3.30;;;7.10;99.90;;;;;;5091313;28;20200;-73
2021/03/16 01:10:40;;;;;;;13.45;2.42;;;7.10;99.90;;;;;;5095371;28;20611;-73
2021/03/16 01:13:07;;;;;;;13.32;2.58;;;7.10;99.90;;;;;;5086374;28;20211;-73
2021/03/16 01:15:33;;;;;;;9.93;3.42;;;7.00;99.90;;;;;;5087440;28;20206;-74
2021/03/16 01:18:01;;;;;;;13.05;2.13;;;7.10;99.90;;;;;;5087817;28;20219;-73
2021/03/16 01:20:28;;;;;;;14.52;2.78;;;7.00;99.90;;;;;;5087636;28;20201;-73
2021/03/16 01:22:55;;;;;;;11.85;3.15;;;7.00;99.90;;;;;;5093578;28;20215;-73
2021/03/16 01:25:21;;;;;;;11.55;2.17;;;7.00;99.90;;;;;;5087910;28;20223;-73
2021/03/16 01:27:48;;;;;;;19.75;2.88;;;7.00;99.90;;;;;;5087321;28;20212;-73
2021/03/16 01:30:15;;;;;;;15.25;2.92;;;7.00;99.90;;;;;;5087156;28;20218;-74
2021/03/16 01:32:42;;;;;;;12.05;2.83;;;7.00;99.90;;;;;;5086881;28;20208;-74
2021/03/16 01:35:12;;;;;;;17.63;3.00;;;7.10;99.90;;;;;;5087341;28;20200;-73
2021/03/16 01:37:39;;;;;;;9.90;3.38;;;7.10;99.90;;;;;;5087725;28;20203;-73
2021/03/16 01:40:10;;;;;;;19.83;3.10;;;7.00;99.90;;;;;;5087586;28;20198;-73
2021/03/16 01:42:37;;;;;;;10.35;2.78;;;7.00;99.90;;;;;;5087133;28;20204;-73
2021/03/16 01:45:08;;;;;;;16.17;3.10;;;7.00;99.90;;;;;;5087316;28;20289;-73
2021/03/16 01:47:34;;;;;;;25.92;3.45;;;7.00;99.90;;;;;;5086805;28;20208;-73
2021/03/16 01:50:04;;;;;;;14.00;2.88;;;7.00;99.90;;;;;;5087238;28;20207;-73
2021/03/16 01:52:31;;;;;;;9.95;3.10;;;7.00;99.90;;;;;;5093879;28;20332;-72
2021/03/16 01:54:59;;;;;;;17.60;3.50;;;7.10;99.90;;;;;;5098231;28;20219;-73
2021/03/16 01:57:27;;;;;;;21.63;4.03;;;7.10;99.90;;;;;;5090945;28;20206;-73
2021/03/16 01:59:55;;;;;;;20.55;4.00;;;7.10;99.90;;;;;;5087286;28;20228;-73
2021/03/16 02:02:22;;;;;;;14.05;4.13;;;7.10;99.90;;;;;;5087553;28;20228;-73
2021/03/16 02:04:48;;;;;;;12.60;4.07;;;7.10;99.90;;;;;;5086331;28;20262;-73
2021/03/16 02:07:19;;;;;;;15.98;4.45;;;7.10;99.90;;;;;;5094749;28;20593;-73
2021/03/16 02:09:53;;;;;;;19.83;3.58;;;7.10;99.90;;;;;;5093089;28;20200;-73
2021/03/16 02:12:27;;;;;;;16.45;5.07;;;7.00;99.90;;;;;;5093462;28;20189;-73
2021/03/16 02:15:00;;;;;;;13.13;3.08;;;7.00;99.90;;;;;;5090695;28;20209;-72
2021/03/16 02:17:31;;;;;;;12.00;4.60;;;6.90;99.90;;;;;;5087622;28;20212;-73
2021/03/16 02:20:21;;;;;;;9.90;2.85;;;6.90;99.90;;;;;;5086236;28;20200;-73
2021/03/16 02:22:50;;;;;;;14.32;2.63;;;6.90;99.90;;;;;;5090771;28;20344;-73
2021/03/16 02:25:54;;;;;;;17.88;2.85;;;6.90;99.90;;;;;;5089695;28;20238;-73
2021/03/16 02:28:34;;;;;;;12.43;2.88;;;6.90;99.90;;;;;;5069299;28;20192;-73
2021/03/16 02:31:02;;;;;;;25.15;2.58;;;6.80;99.90;;;;;;5063611;28;20250;-73
2021/03/16 02:33:33;;;;;;;15.25;2.50;;;6.80;99.90;;;;;;5063880;28;20235;-72
2021/03/16 02:36:02;;;;;;;13.82;3.08;;;6.80;99.90;;;;;;5068486;28;20291;-72
2021/03/16 02:38:31;;;;;;;10.25;2.13;;;6.80;99.90;;;;;;5065989;28;20254;-73
2021/03/16 02:41:00;;;;;;;10.50;2.40;;;6.70;99.90;;;;;;5062799;28;20239;-73
2021/03/16 02:43:29;;;;;;;6.65;1.70;;;6.80;99.90;;;;;;5067500;28;20216;-73
2021/03/16 02:45:56;;;;;;;12.88;2.78;;;6.70;99.90;;;;;;5063059;28;20229;-73
2021/03/16 02:48:26;;;;;;;14.93;3.45;;;6.70;99.90;;;;;;5063814;28;20208;-73
2021/03/16 02:50:53;;;;;;;17.75;2.35;;;6.80;99.90;;;;;;5068072;28;20198;-73
2021/03/16 02:53:20;;;;;;;9.40;2.20;;;6.80;99.90;;;;;;5063175;28;20244;-73
2021/03/16 02:55:48;;;;;;;12.88;2.55;;;6.80;99.90;;;;;;5063141;28;20209;-73
2021/03/16 02:58:16;;;;;;;12.63;2.78;;;6.70;99.90;;;;;;5068111;28;20208;-73
2021/03/16 03:00:44;;;;;;;13.95;3.13;;;6.70;99.90;;;;;;5076975;28;20204;-73
2021/03/16 03:03:11;;;;;;;8.45;2.53;;;6.70;99.90;;;;;;5069356;28;20228;-74
2021/03/16 03:05:40;;;;;;;9.70;2.08;;;6.80;99.90;;;;;;5087964;28;20228;-74
2021/03/16 03:08:10;;;;;;;10.18;2.35;;;6.80;99.90;;;;;;5085411;28;20796;-74
2021/03/16 03:10:36;;;;;;;16.58;2.90;;;6.80;99.90;;;;;;5085877;28;20200;-74
2021/03/16 03:13:04;;;;;;;14.38;3.25;;;6.80;99.90;;;;;;5085984;28;20205;-74
2021/03/16 03:15:31;;;;;;;11.05;2.65;;;6.70;99.90;;;;;;5090373;28;20208;-74
2021/03/16 03:17:58;;;;;;;7.60;1.88;;;6.70;99.90;;;;;;5084714;28;20207;-73
2021/03/16 03:20:25;;;;;;;11.60;2.08;;;6.70;99.90;;;;;;5089680;28;20245;-73
2021/03/16 03:22:57;;;;;;;19.10;2.90;;;6.70;99.90;;;;;;5085630;28;20581;-73
2021/03/16 03:25:27;;;;;;;10.63;2.70;;;6.70;99.90;;;;;;5093870;28;20227;-73
2021/03/16 03:27:59;;;;;;;8.35;2.13;;;6.70;99.90;;;;;;5086139;28;20287;-73
2021/03/16 03:30:27;;;;;;;14.18;2.38;;;6.70;99.90;;;;;;5092191;28;20192;-73
2021/03/16 03:32:59;;;;;;;7.78;2.25;;;6.80;99.90;;;;;;5086177;28;20215;-73
2021/03/16 03:35:26;;;;;;;11.82;2.53;;;6.70;99.90;;;;;;5091517;28;20226;-73
2021/03/16 03:37:54;;;;;;;12.02;2.63;;;6.70;99.90;;;;;;5085802;28;20207;-73
2021/03/16 03:40:23;;;;;;;17.13;2.58;;;6.70;99.90;;;;;;5092272;28;20205;-73
2021/03/16 03:42:52;;;;;;;16.30;2.22;;;6.80;99.90;;;;;;5085358;28;20208;-73
2021/03/16 03:45:19;;;;;;;10.93;2.45;;;6.80;99.90;;;;;;5097914;28;20224;-74
2021/03/16 03:47:46;;;;;;;15.70;2.78;;;6.80;99.90;;;;;;5089823;28;20685;-73
2021/03/16 03:50:15;;;;;;;14.07;2.70;;;6.80;99.90;;;;;;5091266;28;20197;-73
2021/03/16 03:52:43;;;;;;;6.70;2.17;;;6.80;99.90;;;;;;5096974;28;20220;-73
2021/03/16 03:55:13;;;;;;;10.00;2.70;;;6.80;99.90;;;;;;5089373;28;20250;-73
2021/03/16 03:57:41;;;;;;;13.55;3.28;;;6.80;99.90;;;;;;5088847;28;20208;-74
2021/03/16 04:00:11;;;;;;;11.20;3.00;;;6.80;99.90;;;;;;5095551;28;20191;-74
2021/03/16 04:02:38;;;;;;;11.50;2.75;;;6.80;99.90;;;;;;5090620;28;20677;-74
2021/03/16 04:05:07;;;;;;;10.50;2.80;;;6.90;99.90;;;;;;5088894;28;20621;-74
2021/03/16 04:07:35;;;;;;;17.60;3.63;;;6.90;99.90;;;;;;5095633;28;20261;-74
2021/03/16 04:10:02;;;;;;;12.60;3.05;;;6.90;99.90;;;;;;5088455;28;20204;-74
2021/03/16 04:12:29;;;;;;;10.80;2.60;;;6.90;99.90;;;;;;5094829;28;20193;-74
2021/03/16 04:14:56;;;;;;;16.92;3.13;;;6.90;99.90;;;;;;5088709;28;20209;-74
2021/03/16 04:17:23;;;;;;;12.02;2.72;;;6.90;99.90;;;;;;5088950;28;20208;-74
2021/03/16 04:19:54;;;;;;;9.10;3.05;;;6.90;99.90;;;;;;5088808;28;20208;-74
2021/03/16 04:22:21;;;;;;;9.80;2.03;;;6.90;99.90;;;;;;5088503;28;20193;-74
2021/03/16 04:24:47;;;;;;;20.15;3.83;;;6.80;99.90;;;;;;5091895;28;20275;-74
2021/03/16 04:27:14;;;;;;;20.20;2.95;;;6.80;99.90;;;;;;5088582;28;20599;-74
2021/03/16 04:29:41;;;;;;;15.23;2.85;;;6.90;99.90;;;;;;5094938;28;20197;-73
2021/03/16 04:32:08;;;;;;;12.43;3.42;;;6.90;99.90;;;;;;5088907;28;20211;-73
2021/03/16 04:34:34;;;;;;;21.08;4.18;;;6.90;99.90;;;;;;5088909;28;20192;-73
2021/03/16 04:37:01;;;;;;;17.17;3.92;;;6.90;99.90;;;;;;5087898;28;20193;-73
2021/03/16 04:39:27;;;;;;;17.88;5.07;;;6.90;99.90;;;;;;5088657;28;20200;-74
2021/03/16 04:41:54;;;;;;;10.35;4.10;;;6.90;99.90;;;;;;5088251;28;20212;-74
2021/03/16 04:44:21;;;;;;;14.80;4.00;;;6.90;99.90;;;;;;5092424;28;20205;-73
2021/03/16 04:46:48;;;;;;;12.98;3.42;;;6.90;99.90;;;;;;5094347;28;20204;-73
2021/03/16 04:49:14;;;;;;;14.38;3.70;;;6.90;99.90;;;;;;5089597;28;20204;-73
2021/03/16 04:51:41;;;;;;;6.88;2.70;;;6.80;99.90;;;;;;5088594;28;20628;-73
2021/03/16 04:54:08;;;;;;;10.40;3.03;;;6.80;99.90;;;;;;5092247;28;20204;-73
2021/03/16 04:56:34;;;;;;;7.28;2.30;;;6.80;99.90;;;;;;5086266;28;20211;-73
2021/03/16 04:59:01;;;;;;;13.73;2.63;;;6.80;99.90;;;;;;5097182;28;20200;-73
2021/03/16 05:01:27;;;;;;;14.95;3.28;;;6.80;99.90;;;;;;5087912;28;20205;-72
2021/03/16 05:03:55;;;;;;;11.23;2.47;;;6.80;99.90;;;;;;5087762;28;20259;-72
2021/03/16 05:06:22;;;;;;;16.35;2.83;;;6.80;99.90;;;;;;5087605;28;20242;-74
2021/03/16 05:08:48;;;;;;;6.07;2.40;;;6.80;99.90;;;;;;5094147;28;20200;-74
2021/03/16 05:11:15;;;;;;;6.82;2.63;;;6.80;99.90;;;;;;5087549;28;20222;-74
2021/03/16 05:13:41;;;;;;;14.80;2.67;;;6.80;99.90;;;;;;5092357;28;20215;-74
2021/03/16 05:16:09;;;;;;;15.63;2.95;;;6.80;99.90;;;;;;5087869;28;20201;-74
2021/03/16 05:18:36;;;;;;;17.00;2.30;;;6.80;99.90;;;;;;5093427;28;20216;-74
2021/03/16 05:21:03;;;;;;;10.82;3.03;;;6.70;99.90;;;;;;5088054;28;20274;-74
2021/03/16 05:23:30;;;;;;;8.10;1.90;;;6.80;99.90;;;;;;5087001;28;20209;-74
2021/03/16 05:25:56;;;;;;;18.40;3.40;;;6.70;99.90;;;;;;5086931;28;20232;-73
2021/03/16 05:28:23;;;;;;;10.07;2.40;;;6.60;99.90;;;;;;5094127;28;20203;-74
2021/03/16 05:30:49;;;;;;;15.77;2.60;;;6.60;99.90;;;;;;5087816;28;20211;-74
2021/03/16 05:33:19;;;;;;;14.90;2.78;;;6.50;99.90;;;;;;5091659;28;20197;-74
2021/03/16 05:35:46;;;;;;;16.42;2.80;;;6.50;99.90;;;;;;5087583;28;20268;-74
2021/03/16 05:38:13;;;;;;;15.23;3.00;;;6.50;99.90;;;;;;5087335;28;20660;-74
2021/03/16 05:40:41;;;;;;;8.00;2.67;;;6.60;99.90;;;;;;5086444;28;20207;-74
2021/03/16 05:43:08;;;;;;;10.45;3.08;;;6.60;99.90;;;;;;5091785;28;20298;-74
2021/03/16 05:45:35;;;;;;;13.25;3.00;;;6.60;99.90;;;;;;5093175;28;20224;-74
2021/03/16 05:48:02;;;;;;;12.55;3.88;;;6.70;99.90;;;;;;5091063;28;20462;-74
2021/03/16 05:50:28;;;;;;;32.88;7.50;;;6.70;99.90;;;;;;5092886;28;20196;-74
2021/03/16 05:52:55;;;;;;;18.75;6.82;;;6.80;99.90;;;;;;5087514;28;20208;-74
2021/03/16 05:55:23;;;;;;;15.98;5.15;;;6.70;99.90;;;;;;5089467;28;20218;-72
2021/03/16 05:57:50;;;;;;;14.30;4.88;;;6.70;99.90;;;;;;5093844;28;20208;-74
2021/03/16 06:00:18;;;;;;;14.43;4.95;;;6.70;99.90;;;;;;5098442;28;20203;-74
2021/03/16 06:02:45;;;;;;;15.40;3.22;;;6.70;99.90;;;;;;5086560;28;20227;-74
2021/03/16 06:05:13;;;;;;;15.85;3.75;;;6.70;99.90;;;;;;5086743;28;20231;-74
2021/03/16 06:07:40;;;;;;;20.40;3.22;;;6.60;99.90;;;;;;5086395;28;20201;-74
2021/03/16 06:10:07;;;;;;;19.23;3.53;;;6.60;99.90;;;;;;5087675;28;20204;-73
2021/03/16 06:12:35;;;;;;;18.58;3.97;;;6.60;99.90;;;;;;5087238;28;20197;-73
2021/03/16 06:15:12;;;;;;;12.52;3.28;;;6.60;99.90;;;;;;5092149;28;20196;-73
2021/03/16 06:17:45;;;;;;;10.35;3.65;;;6.50;99.90;;;;;;5086248;28;20250;-73
2021/03/16 06:20:24;;;;;;;10.98;2.67;;;6.60;99.90;;;;;;5086005;28;20211;-73
2021/03/16 06:23:02;;;;;;;19.77;3.47;;;6.60;99.90;;;;;;5086563;28;20257;-73
2021/03/16 06:25:31;;;;;;;11.00;3.28;;;6.70;99.90;;;;;;5085850;28;20632;-73
2021/03/16 06:28:04;;;;;;;22.15;3.15;;;6.70;99.90;;;;;;5091506;28;20215;-73
2021/03/16 06:30:30;;;;;;;9.10;2.97;;;6.80;99.90;;;;;;5086109;28;20197;-73
2021/03/16 06:32:57;;;;;;;14.38;2.55;;;7.00;99.90;;;;;;5086418;28;20205;-73
2021/03/16 06:35:24;;;;;;;10.25;2.70;;;7.10;99.90;;;;;;5092203;28;20692;-73
2021/03/16 06:38:05;;;;;;;10.18;2.78;;;7.10;99.90;;;;;;5086309;28;20215;-73
2021/03/16 06:40:33;;;;;;;16.33;3.92;;;7.00;99.90;;;;;;5092864;28;20204;-73
2021/03/16 06:43:08;;;;;;;16.33;3.30;;;7.00;99.90;;;;;;5086349;28;20194;-73
2021/03/16 06:45:36;;;;;;;14.18;3.15;;;7.10;99.90;;;;;;5085366;28;20219;-73
2021/03/16 06:48:14;;;;;;;9.05;2.60;;;7.10;99.90;;;;;;5088676;28;20201;-73
2021/03/16 06:50:41;;;;;;;8.55;2.95;;;7.20;99.90;;;;;;5085888;28;20234;-73
2021/03/16 06:53:13;;;;;;;13.07;3.40;;;7.30;99.90;;;;;;5085198;28;20208;-73
2021/03/16 06:55:50;;;;;;;13.38;2.70;;;7.30;99.90;;;;;;5085380;28;20228;-73
2021/03/16 06:58:21;;;;;;;7.30;2.67;;;7.30;99.90;;;;;;5086597;28;20200;-73
2021/03/16 07:00:48;;;;;;;12.90;2.88;;;7.20;99.90;;;;;;5091563;28;20212;-73
2021/03/16 07:03:14;;;;;;;9.95;2.22;;;7.20;99.90;;;;;;5086383;28;20254;-73
2021/03/16 07:05:41;;;;;;;12.43;2.72;;;7.10;99.90;;;;;;5085602;28;20236;-73
2021/03/16 07:08:08;;;;;;;17.30;2.67;;;7.20;99.90;;;;;;5086340;28;20736;-74
2021/03/16 07:10:36;;;;;;;14.60;3.47;;;7.30;99.90;;;;;;5085982;28;20197;-73
2021/03/16 07:13:03;;;;;;;16.30;2.95;;;7.50;99.90;;;;;;5086134;28;20212;-73
2021/03/16 07:15:31;;;;;;;9.98;3.88;;;7.50;99.90;;;;;;5089385;28;20200;-74
2021/03/16 07:17:58;;;;;;;15.35;2.67;;;7.60;99.90;;;;;;5086757;28;20219;-73
2021/03/16 07:20:33;;;;;;;11.77;3.72;;;7.60;99.90;;;;;;5098927;28;20203;-73
2021/03/16 07:23:02;;;;;;;12.32;3.55;;;7.70;99.90;;;;;;5102263;28;20202;-74
2021/03/16 07:25:30;;;;;;;11.05;3.03;;;7.70;99.90;;;;;;5090129;28;20299;-74
2021/03/16 07:27:58;;;;;;;14.60;2.65;;;7.60;99.90;;;;;;5089472;28;20463;-71
2021/03/16 07:30:26;;;;;;;7.07;3.10;;;7.30;99.90;;;;;;5089435;28;20819;-74
2021/03/16 07:32:55;;;;;;;10.32;3.15;;;7.20;99.90;;;;;;5090421;28;20279;-74
2021/03/16 07:35:23;;;;;;;6.75;2.95;;;7.10;99.90;;;;;;5094493;28;20200;-74
2021/03/16 07:37:51;;;;;;;7.30;1.85;;;7.00;99.90;;;;;;5096043;28;20201;-74
2021/03/16 07:40:18;;;;;;;8.18;1.75;;;7.00;99.90;;;;;;5089583;28;20208;-74
2021/03/16 07:42:47;;;;;;;12.57;2.10;;;6.80;99.90;;;;;;5089708;28;20192;-73
2021/03/16 07:45:24;;;;;;;5.60;1.85;;;6.70;99.90;;;;;;5088945;28;20224;-74
2021/03/16 07:47:50;;;;;;;11.40;2.10;;;6.60;99.90;;;;;;5091570;28;20215;-74
2021/03/16 07:50:26;;;;;;;8.85;1.90;;;6.60;99.90;;;;;;5094643;28;20201;-73
2021/03/16 07:52:53;;;;;;;6.63;2.30;;;6.60;99.90;;;;;;5100155;28;20199;-73
2021/03/16 07:55:27;;;;;;;6.93;2.25;;;6.80;99.90;;;;;;5089074;28;20242;-74
2021/03/16 07:57:53;;;;;;;6.40;2.22;;;7.10;99.90;;;;;;5089240;28;20247;-74
2021/03/16 08:00:29;;;;;;;12.02;2.83;;;7.20;99.90;;;;;;5088695;28;20197;-73
2021/03/16 08:02:59;;;;;;;6.65;2.30;;;7.50;99.90;;;;;;5088320;28;20259;-73
2021/03/16 08:05:27;;;;;;;8.95;2.67;;;7.70;99.90;;;;;;5089035;28;20232;-73
2021/03/16 08:07:54;;;;;;;8.80;2.92;;;7.90;99.90;;;;;;5091942;28;20206;-74
2021/03/16 08:10:28;;;;;;;12.52;2.53;;;8.20;99.90;;;;;;5088830;28;20208;-74
2021/03/16 08:13:02;;;;;;;9.02;3.03;;;8.50;99.90;;;;;;5088994;28;20357;-74
2021/03/16 08:15:40;;;;;;;7.18;3.15;;;8.80;99.90;;;;;;5089444;28;20248;-74
2021/03/16 08:18:07;;;;;;;7.32;3.15;;;8.90;99.90;;;;;;5093349;28;20242;-74
2021/03/16 08:20:34;;;;;;;6.45;2.15;;;8.80;99.90;;;;;;5089412;28;20262;-73
2021/03/16 08:23:05;;;;;;;6.68;2.72;;;8.80;99.90;;;;;;5094330;28;20608;-74
2021/03/16 08:25:33;;;;;;;13.45;3.45;;;8.90;99.90;;;;;;5089941;28;20219;-73
2021/03/16 08:28:00;;;;;;;14.95;4.20;;;9.00;99.90;;;;;;5092759;28;20209;-74
2021/03/16 08:30:28;;;;;;;5.68;3.00;;;9.10;99.90;;;;;;5088594;28;20200;-74
2021/03/16 08:32:55;;;;;;;17.75;3.00;;;9.10;99.90;;;;;;5086677;28;20207;-73
2021/03/16 08:35:21;;;;;;;8.85;5.07;;;8.70;99.90;;;;;;5088072;28;20226;-73
2021/03/16 08:37:52;;;;;;;12.18;4.07;;;8.50;99.90;;;;;;5089191;28;20201;-74
2021/03/16 08:40:22;;;;;;;14.57;3.60;;;8.30;99.90;;;;;;5088681;28;20673;-74
2021/03/16 08:42:49;;;;;;;9.10;5.00;;;8.30;99.90;;;;;;5094969;28;20196;-73
2021/03/16 08:45:16;;;;;;;10.07;4.15;;;8.30;99.90;;;;;;5091731;28;20269;-73
2021/03/16 08:47:42;;;;;;;13.18;5.30;;;8.30;99.90;;;;;;5088413;28;20207;-73
2021/03/16 08:50:12;;;;;;;10.55;3.88;;;8.40;99.90;;;;;;5088618;28;20204;-74
2021/03/16 08:52:38;;;;;;;20.88;4.25;;;8.50;99.90;;;;;;5088064;28;20208;-73
2021/03/16 08:55:06;;;;;;;11.85;3.50;;;8.70;99.90;;;;;;5088230;28;20219;-74
2021/03/16 08:57:33;;;;;;;22.33;6.22;;;8.90;99.90;;;;;;5094845;28;20215;-74
2021/03/16 09:00:01;;;;;;;9.00;3.92;;;9.20;99.90;;;;;;5088354;28;20204;-74
2021/03/16 09:02:29;;;;;;;15.43;3.78;;;9.60;99.90;;;;;;5091543;28;20211;-74
2021/03/16 09:04:56;;;;;;;9.40;2.30;;;9.90;99.90;;;;;;5089797;28;20758;-74
2021/03/16 09:07:24;;;;;;;35.30;5.95;;;10.20;99.90;;;;;;5092167;28;20200;-74
2021/03/16 09:09:51;;;;;;;10.63;3.33;;;10.40;99.90;;;;;;5086965;28;20204;-74
2021/03/16 09:12:29;;;;;;;12.13;2.33;;;10.50;99.90;;;;;;5087170;28;20210;-74
2021/03/16 09:15:06;;;;;;;13.52;3.00;;;10.50;99.90;;;;;;5087553;28;20673;-74
2021/03/16 09:17:33;;;;;;;8.52;3.15;;;10.40;99.90;;;;;;5092052;28;20679;-74
2021/03/16 09:20:08;;;;;;;8.98;3.83;;;10.10;99.90;;;;;;5090260;28;20204;-74
2021/03/16 09:22:35;;;;;;;10.55;3.30;;;10.00;99.90;;;;;;5088357;28;20199;-74
2021/03/16 09:25:01;;;;;;;15.57;3.00;;;9.90;99.90;;;;;;5093183;28;20224;-74
2021/03/16 09:27:29;;;;;;;13.02;3.55;;;9.90;99.90;;;;;;5086895;28;20208;-74
2021/03/16 09:29:56;;;;;;;8.82;3.53;;;9.90;99.90;;;;;;5087888;28;20204;-74
2021/03/16 09:32:22;;;;;;;10.80;3.60;;;9.90;99.90;;;;;;5087782;28;20577;-74
2021/03/16 09:34:49;;;;;;;7.72;3.42;;;9.60;99.90;;;;;;5088675;28;20200;-74
2021/03/16 09:37:18;;;;;;;8.38;3.50;;;9.40;99.90;;;;;;5086735;28;20200;-74
2021/03/16 09:39:55;;;;;;;9.13;4.60;;;9.40;99.90;;;;;;5086283;28;20254;-76
2021/03/16 09:42:33;;;;;;;14.63;4.13;;;9.60;99.90;;;;;;5086526;28;20207;-76
2021/03/16 09:45:03;;;;;;;8.50;3.90;;;10.00;99.90;;;;;;5090382;28;20239;-76
2021/03/16 09:47:30;;;;;;;14.73;4.22;;;10.50;99.90;;;;;;5087594;28;20200;-76
2021/03/16 09:50:07;;;;;;;4.85;2.22;;;10.40;99.90;;;;;;5086903;28;20212;-75
2021/03/16 09:52:34;;;;;;;10.00;2.67;;;10.20;99.90;;;;;;5086876;28;20200;-76
2021/03/16 09:55:01;;;;;;;7.28;2.40;;;9.70;99.90;;;;;;5092199;28;20207;-76
2021/03/16 09:57:33;;;;;;;4.82;2.63;;;9.60;99.90;;;;;;5086210;28;20200;-73
2021/03/16 10:00:00;;;;;;;3.00;2.38;;;9.60;99.90;;;;;;5086596;28;20235;-74
2021/03/16 10:02:35;;;;;;;10.82;2.45;;;9.60;99.90;;;;;;5092593;28;20204;-74
2021/03/16 10:05:07;;;;;;;3.17;2.40;;;9.60;99.90;;;;;;5087820;28;20234;-75
2021/03/16 10:07:34;;;;;;;9.05;2.30;;;9.50;99.90;;;;;;5096958;28;20204;-76
2021/03/16 10:10:14;;;;;;;6.20;2.28;;;9.40;99.90;;;;;;5092756;28;20192;-73
2021/03/16 10:12:50;;;;;;;7.65;2.88;;;9.40;99.90;;;;;;5089796;28;22208;-73
2021/03/16 10:15:26;;;;;;;7.28;2.10;;;9.40;99.90;;;;;;5089493;28;20196;-73
2021/03/16 10:17:53;;;;;;;7.72;2.53;;;9.30;99.90;;;;;;5088907;28;20204;-74
2021/03/16 10:20:25;;;;;;;8.55;3.13;;;9.30;99.90;;;;;;5086962;28;20215;-74
2021/03/16 10:22:54;;;;;;;9.05;3.60;;;9.40;99.90;;;;;;5089135;28;20204;-73
2021/03/16 10:25:23;;;;;;;5.00;2.72;;;9.70;99.90;;;;;;5091565;28;20567;-73
2021/03/16 10:28:02;;;;;;;4.35;2.40;;;9.90;99.90;;;;;;5085956;28;20211;-73
2021/03/16 10:30:34;;;;;;;10.18;2.83;;;10.40;99.90;;;;;;5092169;28;20573;-73
2021/03/16 10:33:01;;;;;;;8.15;2.90;;;11.00;99.90;;;;;;5085075;28;20197;-74
2021/03/16 10:35:28;;;;;;;7.70;2.70;;;11.50;99.90;;;;;;5086024;28;20204;-73
2021/03/16 10:37:55;;;;;;;10.75;3.15;;;11.60;99.90;;;;;;5092263;28;20201;-74
2021/03/16 10:40:22;;;;;;;5.70;3.58;;;11.70;99.90;;;;;;5085984;28;20717;-74
2021/03/16 10:42:49;;;;;;;7.60;3.67;;;11.70;99.90;;;;;;5086185;28;20227;-74
2021/03/16 10:45:16;;;;;;;10.70;3.80;;;11.50;99.90;;;;;;5095225;28;20246;-74
2021/03/16 10:47:43;;;;;;;7.53;4.32;;;11.30;99.90;;;;;;5091386;28;20207;-73
2021/03/16 10:50:11;;;;;;;12.38;3.15;;;10.90;99.90;;;;;;5085537;28;20207;-74
2021/03/16 10:52:37;;;;;;;4.15;1.98;;;10.30;99.90;;;;;;5091624;28;20211;-74
2021/03/16 10:55:08;;;;;;;5.57;1.77;;;9.80;99.90;;;;;;5085743;28;20212;-74
2021/03/16 10:57:34;;;;;;;6.45;2.20;;;9.20;99.90;;;;;;5091790;28;20214;-74
2021/03/16 11:00:01;;;;;;;7.25;1.77;;;8.90;99.90;;;;;;5085811;28;20201;-74
2021/03/16 11:04:54;;;;;;;5.35;2.30;;;8.80;99.90;;;;;;5108152;27;20597;-73
2021/03/16 11:07:20;;;;;;;5.40;2.05;;;8.70;99.90;;;;;;5103408;28;20223;-74
2021/03/16 11:09:47;;;;;;;4.32;2.75;;;8.50;99.90;;;;;;5103236;28;20207;-73
2021/03/16 11:12:14;;;;;;;3.72;1.73;;;8.20;99.90;;;;;;5108603;28;20218;-73
2021/03/16 11:14:40;;;;;;;4.38;1.27;;;8.00;99.90;;;;;;5104173;28;20641;-73
2021/03/16 11:17:07;;;;;;;4.20;1.20;;;7.70;99.90;;;;;;5108501;28;20211;-73
2021/03/16 11:19:33;;;;;;;2.95;1.55;;;7.60;99.90;;;;;;5102656;28;20211;-73
2021/03/16 11:22:01;;;;;;;2.35;1.15;;;7.80;99.90;;;;;;5103337;28;20226;-73
2021/03/16 11:24:27;;;;;;;2.25;2.05;;;8.10;99.90;;;;;;5102917;28;20222;-73
2021/03/16 11:26:54;;;;;;;3.85;1.80;;;8.40;99.90;;;;;;5103393;28;20204;-74
2021/03/16 11:29:20;;;;;;;4.88;1.92;;;8.70;99.90;;;;;;5109946;28;20203;-74
2021/03/16 11:31:47;;;;;;;7.80;2.50;;;9.00;99.90;;;;;;5106321;28;20207;-73
2021/03/16 11:34:14;;;;;;;4.07;2.47;;;9.40;99.90;;;;;;5103211;28;20204;-73
2021/03/16 11:36:42;;;;;;;5.25;3.47;;;9.70;99.90;;;;;;5115054;28;20211;-73
2021/03/16 11:39:09;;;;;;;7.05;2.58;;;10.00;99.90;;;;;;5109747;28;20203;-73
2021/03/16 11:41:36;;;;;;;4.80;1.83;;;10.30;99.90;;;;;;5111145;28;20198;-74
2021/03/16 11:44:03;;;;;;;10.18;2.30;;;10.40;99.90;;;;;;5113861;28;20227;-75
2021/03/16 11:46:29;;;;;;;4.93;2.25;;;10.70;99.90;;;;;;5116740;28;20196;-76
2021/03/16 11:48:56;;;;;;;5.65;2.30;;;10.80;99.90;;;;;;5106813;28;20208;-76
2021/03/16 11:51:22;;;;;;;12.20;2.97;;;10.90;99.90;;;;;;5103498;28;20200;-75
2021/03/16 11:53:49;;;;;;;9.98;2.75;;;10.90;99.90;;;;;;5102690;28;20200;-76
2021/03/16 11:56:16;;;;;;;9.23;2.97;;;11.10;99.90;;;;;;5108944;28;20286;-75
2021/03/16 11:58:43;;;;;;;8.95;3.05;;;11.30;99.90;;;;;;5104755;28;20207;-76
2021/03/16 12:01:09;;;;;;;9.82;2.85;;;11.60;99.90;;;;;;5107441;28;20199;-75
2021/03/16 12:03:36;;;;;;;9.05;2.53;;;11.50;99.90;;;;;;5102130;28;20232;-76
2021/03/16 12:06:02;;;;;;;16.63;2.42;;;11.40;99.90;;;;;;5108326;28;20201;-76
2021/03/16 12:08:29;;;;;;;6.07;2.83;;;11.50;99.90;;;;;;5108108;28;20199;-76
2021/03/16 12:10:55;;;;;;;12.10;3.90;;;11.40;99.90;;;;;;5110244;28;20200;-76
2021/03/16 12:13:23;;;;;;;9.25;3.15;;;11.40;99.90;;;;;;5119841;28;20211;-76
2021/03/16 12:15:49;;;;;;;10.50;3.15;;;11.60;99.90;;;;;;5100556;28;20208;-76
2021/03/16 12:18:16;;;;;;;14.30;5.22;;;11.70;99.90;;;;;;5091739;28;20200;-76
2021/03/16 12:20:42;;;;;;;16.17;3.55;;;11.60;99.90;;;;;;5096651;28;20204;-76
2021/03/16 12:23:09;;;;;;;16.55;3.75;;;11.50;99.90;;;;;;5090808;28;20282;-76
2021/03/16 12:25:35;;;;;;;12.70;4.10;;;11.70;99.90;;;;;;5089821;28;20204;-75
2021/03/16 12:28:02;;;;;;;15.48;4.28;;;11.60;99.90;;;;;;5087714;28;20572;-75
2021/03/16 12:30:30;;;;;;;13.38;4.70;;;11.60;99.90;;;;;;5088193;28;20212;-75
2021/03/16 12:32:56;;;;;;;9.88;4.78;;;11.50;99.90;;;;;;5087043;28;20214;-75
2021/03/16 12:35:23;;;;;;;3.35;1.90;;;11.30;99.90;;;;;;5092407;28;20212;-75
2021/03/16 12:37:50;;;;;;;8.52;2.50;;;10.70;99.90;;;;;;5091287;28;20791;-75
2021/03/16 12:40:17;;;;;;;4.72;1.77;;;10.20;99.90;;;;;;5096093;28;20199;-75
2021/03/16 12:42:44;;;;;;;3.38;1.80;;;9.60;99.90;;;;;;5093194;28;20207;-75
2021/03/16 12:45:11;;;;;;;1.90;1.80;;;9.10;99.90;;;;;;5094097;28;20200;-75
2021/03/16 12:47:39;;;;;;;6.35;1.98;;;8.80;99.90;;;;;;5089017;28;20216;-75
2021/03/16 12:50:06;;;;;;;5.32;1.90;;;8.50;99.90;;;;;;5087851;28;20204;-75
2021/03/16 12:52:33;;;;;;;8.88;1.73;;;8.30;99.90;;;;;;5095497;28;20211;-75
2021/03/16 12:54:59;;;;;;;6.88;1.50;;;8.10;99.90;;;;;;5096991;28;20211;-76
2021/03/16 12:57:26;;;;;;;4.18;2.08;;;8.10;99.90;;;;;;5088412;28;20200;-75